Terminal Aerodrome Forecast
Issued by NWS

Home | Current Version | Previous Version | Text Only | Print | Product List | Glossary On
Versions: 1 2 3 4 5 6 7 8 9 10 11 12 13 14 15 16 17 18 19 20 21
000
FTUS45 KCYS 172011 AAC
TAFLAR
TAF AMD
KLAR 172011Z 1720/1818 32012KT P6SM SCT025 OVC050
     FM172100 32015G25KT 5SM -RASN BKN025 OVC050
     FM172300 31015G25KT P6SM VCSH BKN100
     FM180400 36018G28KT 6SM -SN BKN050
     FM181000 32014KT P6SM SCT120
     FM181700 29017G26KT P6SM FEW250=

USA.gov is the U.S. government's official web portal to all federal, state and local government web resources and services.